Wetterdaten: Woche 16.01.12 - 22.01.12 (KW3)
Datum Zeit Temp. A. Feuchte A. Luftdruck Regen Wind Richtung Taupunkt Windchill Windben
16.01.2012 00:00 -1,1 C 61 % 1023,7 hPa 0,0 l/m 0,0 km/h N -7,6 C -1,1 C 0,0 km/h
16.01.2012 01:00 -1,1 C 61 % 1024,1 hPa 0,0 l/m 0,0 km/h N -7,6 C -1,1 C 0,0 km/h
16.01.2012 02:00 -1,2 C 62 % 1024,2 hPa 0,0 l/m 0,0 km/h N -7,5 C -1,2 C 0,0 km/h
16.01.2012 03:00 -1,2 C 62 % 1024,3 hPa 0,0 l/m 0,0 km/h N -7,6 C -1,2 C 0,0 km/h
16.01.2012 04:00 -1,3 C 62 % 1024,4 hPa 0,0 l/m 0,0 km/h N -7,6 C -1,3 C 0,0 km/h
16.01.2012 05:00 -1,4 C 62 % 1024,8 hPa 0,0 l/m 0,0 km/h N -7,7 C -1,4 C 0,0 km/h
16.01.2012 06:00 -1,4 C 62 % 1025,2 hPa 0,0 l/m 0,0 km/h N -7,8 C -1,4 C 0,0 km/h
16.01.2012 07:00 -1,5 C 63 % 1025,5 hPa 0,0 l/m 0,0 km/h N -7,7 C -1,5 C 0,0 km/h
16.01.2012 08:00 -1,6 C 64 % 1025,9 hPa 0,0 l/m 0,0 km/h N -7,5 C -1,6 C 0,0 km/h
16.01.2012 09:00 -1,6 C 64 % 1026,0 hPa 0,0 l/m 0,0 km/h N -7,5 C -1,6 C 0,0 km/h
16.01.2012 10:00 -1,1 C 64 % 1026,2 hPa 0,0 l/m 0,0 km/h N -7,2 C -1,1 C 0,0 km/h
16.01.2012 11:00 -0,8 C 63 % 1026,0 hPa 0,0 l/m 0,0 km/h N -7,0 C -0,8 C 0,0 km/h
16.01.2012 12:00 -0,5 C 61 % 1025,7 hPa 0,0 l/m 0,0 km/h N -7,2 C -0,5 C 0,0 km/h
16.01.2012 13:00 0,1 C 59 % 1025,0 hPa 0,0 l/m 0,0 km/h N -6,9 C 0,1 C 0,0 km/h
16.01.2012 14:00 0,1 C 59 % 1025,0 hPa 0,0 l/m 0,0 km/h N -7,0 C 0,1 C 0,0 km/h
16.01.2012 15:00 0,0 C 60 % 1024,9 hPa 0,0 l/m 0,0 km/h N -6,9 C 0,0 C 0,0 km/h
16.01.2012 16:00 -0,2 C 59 % 1025,1 hPa 0,0 l/m 0,0 km/h N -7,1 C -0,2 C 0,0 km/h
16.01.2012 17:00 -0,9 C 60 % 1025,1 hPa 0,0 l/m 0,0 km/h N -7,8 C -0,9 C 0,0 km/h
16.01.2012 18:00 -1,0 C 60 % 1025,1 hPa 0,0 l/m 0,0 km/h N -7,8 C -1,0 C 0,0 km/h
16.01.2012 19:00 -0,9 C 59 % 1025,6 hPa 0,0 l/m 0,0 km/h N -7,8 C -0,9 C 0,0 km/h
16.01.2012 20:00 -0,9 C 63 % 1025,9 hPa 0,0 l/m 0,0 km/h N -7,0 C -0,9 C 0,0 km/h
16.01.2012 21:00 -1,3 C 72 % 1025,6 hPa 0,0 l/m 0,0 km/h N -5,8 C -1,3 C 0,0 km/h
16.01.2012 22:00 -1,1 C 72 % 1025,3 hPa 0,0 l/m 0,0 km/h N -5,6 C -1,1 C 0,0 km/h
16.01.2012 23:00 -0,4 C 67 % 1025,1 hPa 0,0 l/m 0,0 km/h N -5,8 C -0,4 C 0,0 km/h
17.01.2012 00:00 0,0 C 67 % 1024,8 hPa 0,0 l/m 0,0 km/h N -5,4 C 0,0 C 0,0 km/h
17.01.2012 01:00 0,1 C 69 % 1024,9 hPa 0,0 l/m 0,0 km/h N -4,8 C 0,1 C 0,0 km/h
17.01.2012 02:00 -0,2 C 76 % 1024,7 hPa 0,0 l/m 0,0 km/h N -4,0 C -0,2 C 0,0 km/h
17.01.2012 03:00 -0,3 C 78 % 1024,2 hPa 0,0 l/m 0,0 km/h N -3,7 C -0,3 C 0,0 km/h
17.01.2012 04:00 -0,7 C 81 % 1023,8 hPa 0,0 l/m 0,0 km/h N -3,5 C -0,7 C 0,0 km/h
17.01.2012 05:00 -0,5 C 83 % 1023,7 hPa 0,0 l/m 0,0 km/h N -3,0 C -0,5 C 0,0 km/h
17.01.2012 06:00 -0,3 C 84 % 1023,6 hPa 0,0 l/m 0,0 km/h N -2,8 C -0,3 C 0,0 km/h
17.01.2012 07:00 -0,3 C 84 % 1023,7 hPa 0,0 l/m 0,0 km/h N -2,7 C -0,3 C 0,0 km/h
17.01.2012 08:00 -0,2 C 84 % 1023,9 hPa 0,0 l/m 0,0 km/h N -2,6 C -0,2 C 0,0 km/h
17.01.2012 09:00 0,2 C 83 % 1024,1 hPa 0,0 l/m 0,0 km/h N -2,4 C 0,2 C 0,0 km/h
17.01.2012 10:00 0,6 C 81 % 1024,4 hPa 0,3 l/m 0,0 km/h N -2,4 C 0,6 C 0,0 km/h
17.01.2012 11:00 0,7 C 79 % 1024,3 hPa 0,0 l/m 0,0 km/h N -2,5 C 0,7 C 0,0 km/h
17.01.2012 12:00 0,8 C 79 % 1024,2 hPa 0,0 l/m 0,0 km/h N -2,4 C 0,8 C 0,0 km/h
17.01.2012 13:00 0,4 C 82 % 1024,3 hPa 0,0 l/m 0,0 km/h N -2,2 C 0,4 C 0,0 km/h
17.01.2012 14:00 0,7 C 81 % 1024,6 hPa 0,3 l/m 0,0 km/h N -2,2 C 0,7 C 0,0 km/h
17.01.2012 15:00 0,9 C 79 % 1025,0 hPa 0,0 l/m 0,0 km/h N -2,4 C 0,9 C 0,0 km/h
17.01.2012 16:00 1,0 C 77 % 1025,4 hPa 0,0 l/m 0,0 km/h N -2,6 C 1,0 C 0,0 km/h
17.01.2012 17:00 1,0 C 76 % 1025,9 hPa 0,0 l/m 0,0 km/h N -2,7 C 1,0 C 0,0 km/h
17.01.2012 18:00 1,1 C 76 % 1026,5 hPa 0,0 l/m 0,0 km/h N -2,6 C 1,1 C 0,0 km/h
17.01.2012 19:00 1,2 C 76 % 1026,9 hPa 0,0 l/m 0,0 km/h N -2,6 C 1,2 C 0,0 km/h
17.01.2012 20:00 1,6 C 73 % 1027,3 hPa 0,0 l/m 0,0 km/h N -2,8 C 1,6 C 0,0 km/h
17.01.2012 21:00 1,7 C 72 % 1027,8 hPa 0,0 l/m 0,0 km/h N -2,8 C 1,7 C 0,0 km/h
17.01.2012 22:00 1,6 C 72 % 1028,1 hPa 0,0 l/m 0,0 km/h N -2,9 C 1,6 C 0,0 km/h
17.01.2012 23:00 1,7 C 73 % 1028,6 hPa 0,0 l/m 0,0 km/h N -2,7 C 1,7 C 0,0 km/h
18.01.2012 00:00 1,7 C 72 % 1028,9 hPa 0,0 l/m 0,0 km/h N -2,8 C 1,7 C 0,0 km/h
18.01.2012 01:00 1,7 C 71 % 1029,2 hPa 0,0 l/m 0,0 km/h N -3,0 C 1,7 C 0,0 km/h
18.01.2012 02:00 1,6 C 71 % 1029,5 hPa 0,0 l/m 0,0 km/h N -3,1 C 1,6 C 0,0 km/h
18.01.2012 03:00 1,3 C 73 % 1029,7 hPa 0,0 l/m 0,0 km/h N -3,0 C 1,3 C 0,0 km/h
18.01.2012 04:00 1,3 C 71 % 1030,0 hPa 0,3 l/m 0,0 km/h N -3,4 C 1,3 C 0,0 km/h
18.01.2012 05:00 1,3 C 71 % 1030,2 hPa 0,0 l/m 0,0 km/h N -3,3 C 1,3 C 0,0 km/h
18.01.2012 06:00 1,4 C 69 % 1030,4 hPa 0,0 l/m 0,0 km/h N -3,7 C 1,4 C 0,0 km/h
18.01.2012 07:00 1,7 C 67 % 1030,7 hPa 0,0 l/m 0,0 km/h N -3,7 C 1,7 C 0,0 km/h
18.01.2012 08:00 1,9 C 66 % 1030,9 hPa 0,0 l/m 0,0 km/h N -3,9 C 1,9 C 0,0 km/h
18.01.2012 09:00 2,0 C 64 % 1031,0 hPa 0,0 l/m 0,0 km/h N -4,1 C 2,0 C 0,0 km/h
18.01.2012 10:00 2,4 C 62 % 1031,0 hPa 0,0 l/m 0,0 km/h N -4,1 C 2,4 C 0,0 km/h
18.01.2012 11:00 3,5 C 59 % 1030,5 hPa 0,0 l/m 0,0 km/h N -3,8 C 3,5 C 0,0 km/h
18.01.2012 12:00 4,2 C 56 % 1029,8 hPa 0,0 l/m 0,0 km/h N -3,9 C 4,2 C 0,0 km/h
18.01.2012 13:00 5,2 C 51 % 1029,2 hPa 0,0 l/m 0,0 km/h N -4,1 C 5,2 C 0,0 km/h
18.01.2012 14:00 5,4 C 49 % 1029,1 hPa 0,0 l/m 0,0 km/h N -4,6 C 5,4 C 0,0 km/h
18.01.2012 15:00 5,1 C 47 % 1029,1 hPa 0,0 l/m 0,0 km/h N -5,2 C 5,1 C 0,0 km/h
18.01.2012 16:00 4,4 C 45 % 1029,4 hPa 0,0 l/m 0,0 km/h N -6,6 C 4,4 C 0,0 km/h
18.01.2012 17:00 3,6 C 45 % 1029,3 hPa 0,0 l/m 0,0 km/h N -7,3 C 3,6 C 0,0 km/h
18.01.2012 18:00 3,5 C 41 % 1029,2 hPa 0,0 l/m 0,0 km/h N -8,6 C 3,5 C 0,0 km/h
18.01.2012 19:00 4,0 C 42 % 1028,5 hPa 0,0 l/m 0,0 km/h N -7,9 C 4,0 C 0,0 km/h
18.01.2012 20:00 2,0 C 48 % 1028,2 hPa 0,0 l/m 0,0 km/h N -7,8 C 2,0 C 0,0 km/h
18.01.2012 21:00 -0,1 C 57 % 1028,0 hPa 0,0 l/m 0,0 km/h N -7,7 C -0,1 C 0,0 km/h
18.01.2012 22:00 -2,1 C 65 % 1027,5 hPa 0,0 l/m 0,0 km/h N -7,8 C -2,1 C 0,0 km/h
18.01.2012 23:00 -3,0 C 71 % 1026,5 hPa 0,0 l/m 0,0 km/h N -7,5 C -3,0 C 0,0 km/h
19.01.2012 00:00 -3,3 C 75 % 1025,4 hPa 0,0 l/m 0,0 km/h N -7,1 C -3,3 C 0,0 km/h
19.01.2012 01:00 -3,5 C 78 % 1024,1 hPa 0,0 l/m 0,0 km/h N -6,8 C -3,5 C 0,0 km/h
19.01.2012 02:00 -3,4 C 79 % 1023,3 hPa 0,0 l/m 0,0 km/h N -6,5 C -3,4 C 0,0 km/h
19.01.2012 03:00 -2,9 C 81 % 1022,8 hPa 0,0 l/m 0,0 km/h N -5,7 C -2,9 C 0,0 km/h
19.01.2012 04:00 2,7 C 64 % 1021,9 hPa 0,0 l/m 0,0 km/h N -3,7 C 2,7 C 0,0 km/h
19.01.2012 05:00 6,4 C 48 % 1021,1 hPa 0,0 l/m 0,0 km/h N -3,7 C 6,4 C 0,0 km/h
19.01.2012 06:00 6,3 C 55 % 1020,5 hPa 0,0 l/m 0,0 km/h N -2,1 C 6,3 C 0,0 km/h
19.01.2012 07:00 4,7 C 77 % 1020,8 hPa 2,3 l/m 0,0 km/h N 1,0 C 4,7 C 0,0 km/h
19.01.2012 08:00 4,3 C 84 % 1020,7 hPa 3,1 l/m 0,0 km/h N 1,8 C 4,3 C 0,0 km/h
19.01.2012 09:00 4,7 C 84 % 1020,6 hPa 1,6 l/m 0,0 km/h N 2,2 C 4,7 C 0,0 km/h
19.01.2012 10:00 5,1 C 83 % 1020,4 hPa 0,8 l/m 0,0 km/h N 2,4 C 5,1 C 0,4 km/h
19.01.2012 11:00 5,1 C 83 % 1019,8 hPa 1,3 l/m 0,0 km/h N 2,5 C 5,1 C 0,0 km/h
19.01.2012 12:00 5,8 C 82 % 1018,7 hPa 0,3 l/m 9,2 km/h W-SW 2,9 C 2,8 C 24,9 km/h
19.01.2012 13:00 6,4 C 81 % 1017,5 hPa 0,8 l/m 10,5 km/h W-NW 3,4 C 3,4 C 26,5 km/h
19.01.2012 14:00 6,8 C 83 % 1015,9 hPa 4,4 l/m 2,8 km/h S 4,1 C 6,8 C 12,4 km/h
19.01.2012 15:00 8,0 C 84 % 1014,7 hPa 0,3 l/m 4,7 km/h S-SW 5,4 C 7,8 C 17,7 km/h
19.01.2012 16:00 9,4 C 82 % 1013,3 hPa 1,3 l/m 8,1 km/h W 6,5 C 8,1 C 27,0 km/h
19.01.2012 17:00 9,9 C 81 % 1012,1 hPa 2,1 l/m 14,3 km/h W 6,8 C 5,4 C 36,6 km/h
19.01.2012 18:00 10,2 C 80 % 1011,3 hPa 2,3 l/m 24,6 km/h W 6,8 C 2,2 C 53,1 km/h
19.01.2012 19:00 10,3 C 78 % 1010,9 hPa 0,8 l/m 23,3 km/h NW 6,6 C 2,7 C 51,1 km/h
19.01.2012 20:00 10,9 C 73 % 1010,3 hPa 0,0 l/m 23,5 km/h W 6,3 C 3,4 C 51,5 km/h
19.01.2012 21:00 11,2 C 71 % 1009,6 hPa 0,0 l/m 29,9 km/h W-SW 6,0 C 2,3 C 60,3 km/h
19.01.2012 22:00 11,1 C 71 % 1010,0 hPa 0,0 l/m 27,0 km/h W-NW 5,9 C 2,9 C 55,1 km/h
19.01.2012 23:00 10,9 C 72 % 1009,9 hPa 0,0 l/m 22,8 km/h W 6,0 C 3,6 C 52,3 km/h
20.01.2012 00:00 10,8 C 72 % 1010,4 hPa 0,3 l/m 20,5 km/h W 5,9 C 4,2 C 47,1 km/h
20.01.2012 01:00 8,2 C 79 % 1012,0 hPa 3,4 l/m 17,3 km/h W 4,7 C 2,3 C 40,3 km/h
20.01.2012 02:00 6,4 C 83 % 1012,2 hPa 1,0 l/m 7,8 km/h W-NW 3,7 C 5,1 C 18,5 km/h
20.01.2012 03:00 5,8 C 81 % 1012,3 hPa 1,3 l/m 11,8 km/h W 2,7 C 1,8 C 26,1 km/h
20.01.2012 04:00 5,3 C 81 % 1011,6 hPa 0,3 l/m 7,3 km/h W 2,3 C 4,6 C 18,9 km/h
20.01.2012 05:00 5,2 C 81 % 1011,5 hPa 0,5 l/m 9,6 km/h W 2,3 C 2,7 C 21,7 km/h
20.01.2012 06:00 4,1 C 83 % 1011,1 hPa 0,5 l/m 5,7 km/h W-NW 1,4 C 3,4 C 18,1 km/h
20.01.2012 07:00 3,3 C 84 % 1010,1 hPa 0,0 l/m 0,3 km/h N 0,9 C 3,3 C 3,2 km/h
20.01.2012 08:00 4,1 C 84 % 1009,6 hPa 0,3 l/m 4,3 km/h W-SW 1,6 C 3,8 C 14,1 km/h
20.01.2012 09:00 5,4 C 80 % 1008,5 hPa 0,0 l/m 6,4 km/h W-SW 2,3 C 4,5 C 20,1 km/h
20.01.2012 10:00 6,0 C 79 % 1008,9 hPa 0,3 l/m 6,6 km/h W 2,6 C 5,4 C 17,7 km/h
20.01.2012 11:00 5,1 C 81 % 1009,3 hPa 1,3 l/m 12,9 km/h W 2,2 C 0,6 C 31,4 km/h
20.01.2012 12:00 4,1 C 79 % 1011,0 hPa 1,8 l/m 21,2 km/h W-NW 0,8 C -4,8 C 46,7 km/h
20.01.2012 13:00 2,8 C 83 % 1010,7 hPa 2,6 l/m 24,0 km/h W 0,2 C -7,3 C 45,9 km/h
20.01.2012 14:00 3,2 C 80 % 1010,3 hPa 0,3 l/m 30,4 km/h W -0,0 C -9,0 C 58,4 km/h
20.01.2012 15:00 3,2 C 78 % 1010,8 hPa 0,3 l/m 23,9 km/h W -0,2 C -7,0 C 49,5 km/h
20.01.2012 16:00 3,2 C 75 % 1010,8 hPa 0,0 l/m 21,9 km/h W-NW -0,9 C -6,3 C 45,9 km/h
20.01.2012 17:00 3,1 C 73 % 1010,8 hPa 0,0 l/m 19,5 km/h W -1,2 C -5,4 C 43,9 km/h
20.01.2012 18:00 2,9 C 74 % 1011,0 hPa 0,0 l/m 19,2 km/h W-SW -1,2 C -5,5 C 43,0 km/h
20.01.2012 19:00 3,1 C 72 % 1011,0 hPa 0,0 l/m 20,2 km/h W-NW -1,5 C -5,6 C 41,8 km/h
20.01.2012 20:00 3,2 C 72 % 1011,3 hPa 0,0 l/m 16,9 km/h W-NW -1,4 C -4,0 C 37,4 km/h
20.01.2012 21:00 2,7 C 77 % 1011,9 hPa 0,0 l/m 9,9 km/h W-NW -1,0 C -0,2 C 27,0 km/h
20.01.2012 22:00 2,2 C 75 % 1012,9 hPa 0,0 l/m 4,3 km/h W -1,9 C 2,1 C 12,1 km/h
20.01.2012 23:00 0,8 C 77 % 1013,1 hPa 0,0 l/m 0,2 km/h N -2,7 C 0,8 C 2,8 km/h
21.01.2012 00:00 1,4 C 78 % 1013,3 hPa 0,0 l/m 4,5 km/h W -1,9 C 1,4 C 11,7 km/h
21.01.2012 01:00 2,2 C 74 % 1013,6 hPa 0,0 l/m 5,1 km/h W-NW -2,0 C 2,1 C 13,7 km/h
21.01.2012 02:00 1,9 C 76 % 1014,1 hPa 0,0 l/m 8,2 km/h W-NW -1,9 C -0,1 C 18,9 km/h
21.01.2012 03:00 2,2 C 73 % 1014,5 hPa 0,0 l/m 12,1 km/h W-NW -2,2 C -2,6 C 25,3 km/h
21.01.2012 04:00 1,8 C 75 % 1014,9 hPa 0,0 l/m 9,7 km/h W-NW -2,2 C -1,2 C 21,3 km/h
21.01.2012 05:00 1,7 C 72 % 1015,2 hPa 0,0 l/m 10,5 km/h W-NW -2,8 C -1,8 C 22,5 km/h
21.01.2012 06:00 1,8 C 69 % 1015,5 hPa 0,0 l/m 11,1 km/h W -3,4 C -2,2 C 23,7 km/h
21.01.2012 07:00 1,8 C 69 % 1015,9 hPa 0,0 l/m 8,5 km/h W-NW -3,3 C -0,6 C 21,3 km/h
21.01.2012 08:00 1,9 C 71 % 1016,3 hPa 0,0 l/m 8,0 km/h W-NW -2,8 C 0,3 C 20,1 km/h
21.01.2012 09:00 2,9 C 71 % 1016,4 hPa 0,0 l/m 8,1 km/h W -1,8 C 1,0 C 20,5 km/h
21.01.2012 10:00 3,7 C 69 % 1016,5 hPa 0,0 l/m 13,2 km/h W -1,5 C -1,4 C 29,4 km/h
21.01.2012 11:00 4,0 C 65 % 1016,0 hPa 0,0 l/m 11,0 km/h W-NW -1,9 C 0,3 C 27,8 km/h
21.01.2012 12:00 4,7 C 64 % 1014,9 hPa 0,0 l/m 3,4 km/h S-SW -1,6 C 4,7 C 15,7 km/h
21.01.2012 13:00 5,0 C 57 % 1013,8 hPa 0,0 l/m 4,2 km/h W-NW -2,7 C 4,9 C 16,9 km/h
21.01.2012 14:00 4,9 C 57 % 1012,8 hPa 0,0 l/m 1,3 km/h S-SO -2,9 C 4,9 C 8,1 km/h
21.01.2012 15:00 4,9 C 58 % 1012,1 hPa 0,0 l/m 1,1 km/h S -2,7 C 4,9 C 6,0 km/h
21.01.2012 16:00 3,0 C 75 % 1011,3 hPa 0,5 l/m 3,7 km/h S -1,1 C 3,0 C 10,9 km/h
21.01.2012 17:00 1,1 C 84 % 1010,0 hPa 0,3 l/m 3,1 km/h SO -1,4 C 1,1 C 12,5 km/h
21.01.2012 18:00 0,6 C 84 % 1008,3 hPa 0,0 l/m 3,0 km/h O-SO -1,8 C 0,6 C 10,5 km/h
21.01.2012 19:00 1,0 C 83 % 1007,0 hPa 4,9 l/m 5,2 km/h SO -1,6 C 1,0 C 15,3 km/h
21.01.2012 20:00 2,7 C 80 % 1005,3 hPa 6,8 l/m 5,1 km/h O-SO -0,4 C 2,0 C 21,3 km/h
21.01.2012 21:00 6,3 C 83 % 1003,4 hPa 3,6 l/m 9,7 km/h W-NW 3,6 C 3,8 C 34,2 km/h
21.01.2012 22:00 7,7 C 81 % 1002,0 hPa 0,8 l/m 13,0 km/h W 4,7 C 3,4 C 33,4 km/h
21.01.2012 23:00 8,6 C 79 % 1000,7 hPa 1,0 l/m 15,3 km/h W-NW 5,2 C 3,4 C 38,2 km/h
22.01.2012 00:00 9,2 C 78 % 999,9 hPa 1,0 l/m 17,1 km/h W 5,5 C 3,3 C 41,4 km/h
22.01.2012 01:00 9,4 C 76 % 999,2 hPa 0,3 l/m 16,6 km/h W-NW 5,5 C 3,8 C 46,7 km/h
22.01.2012 02:00 8,4 C 78 % 1000,6 hPa 1,8 l/m 20,2 km/h NW 4,7 C 1,1 C 46,3 km/h
22.01.2012 03:00 5,6 C 81 % 1003,6 hPa 2,3 l/m 16,2 km/h NW 2,7 C -0,8 C 36,2 km/h
22.01.2012 04:00 4,7 C 82 % 1005,0 hPa 0,3 l/m 10,4 km/h W-NW 1,9 C 1,8 C 27,0 km/h
22.01.2012 05:00 5,2 C 76 % 1005,8 hPa 0,0 l/m 12,1 km/h W 1,2 C 0,9 C 30,6 km/h
22.01.2012 06:00 4,9 C 77 % 1006,4 hPa 0,0 l/m 6,7 km/h W 1,1 C 3,9 C 20,5 km/h
22.01.2012 07:00 4,9 C 78 % 1007,2 hPa 0,0 l/m 7,8 km/h W-SW 1,4 C 3,4 C 26,9 km/h
22.01.2012 08:00 4,5 C 79 % 1008,0 hPa 0,0 l/m 7,1 km/h W 1,2 C 3,6 C 26,1 km/h
22.01.2012 09:00 5,4 C 74 % 1008,5 hPa 0,3 l/m 14,2 km/h W-NW 1,1 C 0,0 C 35,0 km/h
22.01.2012 10:00 5,8 C 71 % 1009,0 hPa 0,3 l/m 11,9 km/h W-NW 0,9 C 1,9 C 36,2 km/h
22.01.2012 11:00 6,2 C 67 % 1009,1 hPa 0,0 l/m 13,3 km/h W 0,6 C 1,6 C 36,2 km/h
22.01.2012 12:00 7,0 C 64 % 1008,7 hPa 0,0 l/m 16,3 km/h W-SW 0,7 C 0,9 C 41,4 km/h
22.01.2012 13:00 7,2 C 63 % 1008,1 hPa 0,0 l/m 18,3 km/h W-NW 0,7 C 0,3 C 38,6 km/h
22.01.2012 14:00 6,8 C 66 % 1007,8 hPa 0,0 l/m 19,9 km/h N 0,7 C -0,9 C 41,8 km/h
22.01.2012 15:00 6,4 C 66 % 1007,6 hPa 0,0 l/m 17,7 km/h W-NW 0,4 C -0,4 C 39,0 km/h
22.01.2012 16:00 6,2 C 68 % 1007,7 hPa 0,0 l/m 13,3 km/h W 0,7 C 1,4 C 31,4 km/h
22.01.2012 17:00 6,2 C 70 % 1007,7 hPa 0,0 l/m 12,2 km/h W-NW 1,1 C 2,2 C 30,2 km/h
22.01.2012 18:00 5,5 C 77 % 1007,4 hPa 0,0 l/m 2,7 km/h W-SW 1,8 C 5,5 C 10,9 km/h
22.01.2012 19:00 6,1 C 75 % 1006,8 hPa 0,0 l/m 5,2 km/h W 2,0 C 4,9 C 15,7 km/h
22.01.2012 20:00 7,5 C 71 % 1006,3 hPa 0,0 l/m 14,0 km/h W-SW 2,7 C 2,6 C 35,0 km/h
22.01.2012 21:00 8,0 C 70 % 1006,1 hPa 0,0 l/m 15,7 km/h W 2,7 C 2,4 C 45,4 km/h
22.01.2012 22:00 8,3 C 67 % 1006,0 hPa 0,0 l/m 13,8 km/h S-SW 2,4 C 3,6 C 38,2 km/h
22.01.2012 23:00 8,5 C 64 % 1005,9 hPa 0,0 l/m 15,3 km/h N 2,1 C 3,2 C 43,4 km/h
Min-Datum _ 19.01.12 18.01.12 22.01.12 - 16.01.12 - 18.01.12 20.01.12 16.01.12
_ Min-Zeit 01:30 18:45 01:45 - 00:00 - 18:45 14:45 00:00
Minimum _ -3,5 C 37 % 998,8 hPa - 0,0 km/h - -9,2 C -11,4 C 0,0 km/h
Max-Datum _ 19.01.12 20.01.12 18.01.12 21.01.12 20.01.12 - 19.01.12 19.01.12 19.01.12
_ Max-Zeit 21:45 07:45 09:30 20:30 14:30 - 18:00 16:00 21:45
Maximum _ 11,3 C 85 % 1031,1 hPa 6,8 l/m 32,8 km/h
W
- 6,9 C 9,1 C 67,6 km/h
W-NW
Durchschnitt _ 3,1 C 71 % 1018,0 hPa #60,3 l/m 6,1 km/h W-NW -1,7 C 1,2 C 14,9 km/h